sensor_id;sensor_type;location;lat;lon;timestamp;pressure;altitude;pressure_sealevel;temperature;humidity
35226;BME280;21813;49.686;21.766;2022-09-27T00:01:15;97243.31;;;7.96;100.00
35226;BME280;21813;49.686;21.766;2022-09-27T00:03:41;97236.34;;;7.96;100.00
35226;BME280;21813;49.686;21.766;2022-09-27T00:08:37;97228.13;;;7.91;100.00
35226;BME280;21813;49.686;21.766;2022-09-27T00:11:11;97230.59;;;7.93;100.00
35226;BME280;21813;49.686;21.766;2022-09-27T00:13:39;97226.38;;;7.92;100.00
35226;BME280;21813;49.686;21.766;2022-09-27T00:16:05;97224.72;;;7.91;100.00
35226;BME280;21813;49.686;21.766;2022-09-27T00:18:32;97224.47;;;7.94;100.00
35226;BME280;21813;49.686;21.766;2022-09-27T00:21:06;97225.53;;;7.91;100.00
35226;BME280;21813;49.686;21.766;2022-09-27T00:23:32;97224.06;;;7.89;100.00
35226;BME280;21813;49.686;21.766;2022-09-27T00:25:59;97228.53;;;7.87;100.00
35226;BME280;21813;49.686;21.766;2022-09-27T00:28:25;97218.72;;;7.81;100.00
35226;BME280;21813;49.686;21.766;2022-09-27T00:30:51;97222.81;;;7.83;100.00
35226;BME280;21813;49.686;21.766;2022-09-27T00:33:19;97211.59;;;7.83;100.00
35226;BME280;21813;49.686;21.766;2022-09-27T00:35:45;97208.59;;;7.78;100.00
35226;BME280;21813;49.686;21.766;2022-09-27T00:38:11;97210.13;;;7.80;100.00
35226;BME280;21813;49.686;21.766;2022-09-27T00:40:37;97203.56;;;7.76;100.00
35226;BME280;21813;49.686;21.766;2022-09-27T00:43:21;97213.53;;;7.81;100.00
35226;BME280;21813;49.686;21.766;2022-09-27T00:46:01;97217.06;;;7.80;100.00
35226;BME280;21813;49.686;21.766;2022-09-27T00:48:30;97204.50;;;7.75;100.00
35226;BME280;21813;49.686;21.766;2022-09-27T00:51:00;97199.31;;;7.75;100.00
35226;BME280;21813;49.686;21.766;2022-09-27T00:53:34;97197.78;;;7.73;100.00
35226;BME280;21813;49.686;21.766;2022-09-27T00:56:08;97197.25;;;7.69;100.00
35226;BME280;21813;49.686;21.766;2022-09-27T00:58:46;97193.56;;;7.62;100.00
35226;BME280;21813;49.686;21.766;2022-09-27T01:01:13;97192.97;;;7.59;100.00
35226;BME280;21813;49.686;21.766;2022-09-27T01:04:07;97189.72;;;7.57;100.00
35226;BME280;21813;49.686;21.766;2022-09-27T01:06:34;97182.47;;;7.50;100.00
35226;BME280;21813;49.686;21.766;2022-09-27T01:08:59;97188.75;;;7.48;100.00
35226;BME280;21813;49.686;21.766;2022-09-27T01:22:13;97184.19;;;7.40;100.00
35226;BME280;21813;49.686;21.766;2022-09-27T01:28:03;97170.56;;;7.38;100.00
35226;BME280;21813;49.686;21.766;2022-09-27T01:33:23;97168.91;;;7.37;100.00
35226;BME280;21813;49.686;21.766;2022-09-27T01:36:30;97165.50;;;7.37;100.00
35226;BME280;21813;49.686;21.766;2022-09-27T01:44:36;97154.97;;;7.29;100.00
35226;BME280;21813;49.686;21.766;2022-09-27T01:47:09;97153.06;;;7.21;100.00
35226;BME280;21813;49.686;21.766;2022-09-27T01:50:00;97156.44;;;7.12;100.00
35226;BME280;21813;49.686;21.766;2022-09-27T01:52:35;97157.06;;;7.04;100.00
35226;BME280;21813;49.686;21.766;2022-09-27T01:55:04;97153.09;;;7.00;100.00
35226;BME280;21813;49.686;21.766;2022-09-27T01:57:34;97152.00;;;6.93;100.00
35226;BME280;21813;49.686;21.766;2022-09-27T02:00:05;97148.59;;;6.93;100.00
35226;BME280;21813;49.686;21.766;2022-09-27T02:02:36;97141.75;;;6.92;100.00
35226;BME280;21813;49.686;21.766;2022-09-27T02:05:07;97145.56;;;6.88;100.00
35226;BME280;21813;49.686;21.766;2022-09-27T02:07:47;97143.22;;;6.85;100.00
35226;BME280;21813;49.686;21.766;2022-09-27T02:10:22;97130.22;;;6.75;100.00
35226;BME280;21813;49.686;21.766;2022-09-27T02:18:31;97128.28;;;6.68;100.00
35226;BME280;21813;49.686;21.766;2022-09-27T02:20:59;97130.75;;;6.69;100.00
35226;BME280;21813;49.686;21.766;2022-09-27T02:23:38;97119.84;;;6.65;100.00
35226;BME280;21813;49.686;21.766;2022-09-27T02:26:14;97133.47;;;6.68;100.00
35226;BME280;21813;49.686;21.766;2022-09-27T02:29:08;97126.19;;;6.61;100.00
35226;BME280;21813;49.686;21.766;2022-09-27T02:31:33;97113.63;;;6.57;100.00
35226;BME280;21813;49.686;21.766;2022-09-27T02:34:09;97118.97;;;6.55;100.00
35226;BME280;21813;49.686;21.766;2022-09-27T02:36:37;97118.41;;;6.52;100.00
35226;BME280;21813;49.686;21.766;2022-09-27T02:39:03;97113.72;;;6.46;100.00
35226;BME280;21813;49.686;21.766;2022-09-27T02:41:28;97123.25;;;6.45;100.00
35226;BME280;21813;49.686;21.766;2022-09-27T02:44:00;97118.84;;;6.36;100.00
35226;BME280;21813;49.686;21.766;2022-09-27T03:03:49;97118.91;;;6.25;100.00
35226;BME280;21813;49.686;21.766;2022-09-27T03:06:18;97113.88;;;6.24;100.00
35226;BME280;21813;49.686;21.766;2022-09-27T03:08:45;97107.88;;;6.23;100.00
35226;BME280;21813;49.686;21.766;2022-09-27T03:11:11;97108.53;;;6.25;100.00
35226;BME280;21813;49.686;21.766;2022-09-27T03:13:37;97112.28;;;6.32;100.00
35226;BME280;21813;49.686;21.766;2022-09-27T03:16:06;97108.63;;;6.35;100.00
35226;BME280;21813;49.686;21.766;2022-09-27T03:18:32;97103.31;;;6.36;100.00
35226;BME280;21813;49.686;21.766;2022-09-27T03:20:58;97107.78;;;6.34;100.00
35226;BME280;21813;49.686;21.766;2022-09-27T03:23:24;97092.78;;;6.28;100.00
35226;BME280;21813;49.686;21.766;2022-09-27T03:25:50;97105.47;;;6.31;100.00
35226;BME280;21813;49.686;21.766;2022-09-27T03:28:17;97108.06;;;6.31;100.00
35226;BME280;21813;49.686;21.766;2022-09-27T03:30:47;97102.16;;;6.29;100.00
35226;BME280;21813;49.686;21.766;2022-09-27T03:33:13;97097.25;;;6.26;100.00
35226;BME280;21813;49.686;21.766;2022-09-27T03:35:40;97094.66;;;6.26;100.00
35226;BME280;21813;49.686;21.766;2022-09-27T03:38:06;97095.38;;;6.28;100.00
35226;BME280;21813;49.686;21.766;2022-09-27T03:40:32;97097.16;;;6.28;100.00
35226;BME280;21813;49.686;21.766;2022-09-27T03:42:58;97088.56;;;6.27;100.00
35226;BME280;21813;49.686;21.766;2022-09-27T03:45:23;97093.72;;;6.27;100.00
35226;BME280;21813;49.686;21.766;2022-09-27T03:47:49;97095.63;;;6.25;100.00
35226;BME280;21813;49.686;21.766;2022-09-27T03:50:15;97100.56;;;6.28;100.00
35226;BME280;21813;49.686;21.766;2022-09-27T03:52:42;97098.47;;;6.22;100.00
35226;BME280;21813;49.686;21.766;2022-09-27T03:55:09;97093.22;;;6.12;100.00
35226;BME280;21813;49.686;21.766;2022-09-27T03:57:35;97088.91;;;6.02;100.00
35226;BME280;21813;49.686;21.766;2022-09-27T04:00:04;97084.28;;;5.96;100.00
35226;BME280;21813;49.686;21.766;2022-09-27T04:02:31;97075.50;;;5.87;100.00
35226;BME280;21813;49.686;21.766;2022-09-27T04:04:56;97069.72;;;5.84;100.00
35226;BME280;21813;49.686;21.766;2022-09-27T04:07:22;97064.69;;;5.82;100.00
35226;BME280;21813;49.686;21.766;2022-09-27T04:09:49;97064.81;;;5.81;100.00
35226;BME280;21813;49.686;21.766;2022-09-27T04:12:14;97070.53;;;5.84;100.00
35226;BME280;21813;49.686;21.766;2022-09-27T04:14:40;97071.13;;;5.88;100.00
35226;BME280;21813;49.686;21.766;2022-09-27T04:17:07;97069.50;;;5.87;100.00
35226;BME280;21813;49.686;21.766;2022-09-27T04:19:33;97071.13;;;5.88;100.00
35226;BME280;21813;49.686;21.766;2022-09-27T04:21:58;97070.91;;;5.91;100.00
35226;BME280;21813;49.686;21.766;2022-09-27T04:24:26;97066.78;;;5.88;100.00
35226;BME280;21813;49.686;21.766;2022-09-27T04:26:52;97067.50;;;5.90;100.00
35226;BME280;21813;49.686;21.766;2022-09-27T04:29:18;97064.34;;;5.87;100.00
35226;BME280;21813;49.686;21.766;2022-09-27T04:31:45;97069.50;;;5.87;100.00
35226;BME280;21813;49.686;21.766;2022-09-27T04:34:11;97073.00;;;5.86;100.00
35226;BME280;21813;49.686;21.766;2022-09-27T04:36:37;97076.53;;;5.85;100.00
35226;BME280;21813;49.686;21.766;2022-09-27T04:39:05;97078.19;;;5.86;100.00
35226;BME280;21813;49.686;21.766;2022-09-27T04:41:32;97077.28;;;5.87;100.00
35226;BME280;21813;49.686;21.766;2022-09-27T04:44:00;97058.69;;;5.82;100.00
35226;BME280;21813;49.686;21.766;2022-09-27T04:46:27;97068.78;;;5.85;100.00
35226;BME280;21813;49.686;21.766;2022-09-27T04:48:57;97065.38;;;5.84;100.00
35226;BME280;21813;49.686;21.766;2022-09-27T04:51:23;97066.06;;;5.86;100.00
35226;BME280;21813;49.686;21.766;2022-09-27T04:53:49;97069.59;;;5.85;100.00
35226;BME280;21813;49.686;21.766;2022-09-27T04:56:15;97064.34;;;5.87;100.00
35226;BME280;21813;49.686;21.766;2022-09-27T04:58:40;97077.00;;;5.90;100.00
35226;BME280;21813;49.686;21.766;2022-09-27T05:01:06;97069.00;;;5.93;100.00
35226;BME280;21813;49.686;21.766;2022-09-27T05:03:33;97063.00;;;5.92;100.00
35226;BME280;21813;49.686;21.766;2022-09-27T05:06:00;97059.63;;;5.92;100.00
35226;BME280;21813;49.686;21.766;2022-09-27T05:08:26;97062.88;;;5.94;100.00
35226;BME280;21813;49.686;21.766;2022-09-27T05:10:53;97068.59;;;5.97;100.00
35226;BME280;21813;49.686;21.766;2022-09-27T05:13:19;97066.84;;;5.98;100.00
35226;BME280;21813;49.686;21.766;2022-09-27T05:15:45;97070.81;;;6.02;100.00
35226;BME280;21813;49.686;21.766;2022-09-27T05:18:10;97078.09;;;6.08;100.00
35226;BME280;21813;49.686;21.766;2022-09-27T05:20:37;97073.47;;;6.11;100.00
35226;BME280;21813;49.686;21.766;2022-09-27T05:23:04;97065.47;;;6.14;100.00
35226;BME280;21813;49.686;21.766;2022-09-27T05:25:31;97065.78;;;6.21;100.00
35226;BME280;21813;49.686;21.766;2022-09-27T05:27:57;97068.41;;;6.31;100.00
35226;BME280;21813;49.686;21.766;2022-09-27T05:30:24;97050.75;;;6.36;100.00
35226;BME280;21813;49.686;21.766;2022-09-27T05:32:50;97059.50;;;6.44;100.00
35226;BME280;21813;49.686;21.766;2022-09-27T05:35:17;97041.78;;;6.40;100.00
35226;BME280;21813;49.686;21.766;2022-09-27T05:37:55;97057.28;;;6.60;100.00
35226;BME280;21813;49.686;21.766;2022-09-27T05:40:21;97060.41;;;6.64;100.00
35226;BME280;21813;49.686;21.766;2022-09-27T05:42:54;97042.41;;;6.62;100.00
35226;BME280;21813;49.686;21.766;2022-09-27T05:45:21;97056.66;;;6.78;100.00
35226;BME280;21813;49.686;21.766;2022-09-27T05:47:57;97052.56;;;6.85;100.00
35226;BME280;21813;49.686;21.766;2022-09-27T05:50:25;97040.03;;;6.90;100.00
35226;BME280;21813;49.686;21.766;2022-09-27T05:52:52;97039.81;;;6.93;100.00
35226;BME280;21813;49.686;21.766;2022-09-27T05:55:19;97026.47;;;7.07;100.00
35226;BME280;21813;49.686;21.766;2022-09-27T05:58:00;97024.03;;;7.15;100.00
35226;BME280;21813;49.686;21.766;2022-09-27T06:00:32;97027.03;;;7.20;100.00
35226;BME280;21813;49.686;21.766;2022-09-27T06:03:05;97036.19;;;7.43;100.00
35226;BME280;21813;49.686;21.766;2022-09-27T06:05:37;97041.22;;;7.54;100.00
35226;BME280;21813;49.686;21.766;2022-09-27T06:08:09;97051.63;;;7.64;100.00
35226;BME280;21813;49.686;21.766;2022-09-27T06:10:37;97038.25;;;7.69;100.00
35226;BME280;21813;49.686;21.766;2022-09-27T06:13:05;97054.34;;;7.82;100.00
35226;BME280;21813;49.686;21.766;2022-09-27T06:15:32;97049.00;;;7.93;100.00
35226;BME280;21813;49.686;21.766;2022-09-27T06:18:03;97057.44;;;8.14;100.00
35226;BME280;21813;49.686;21.766;2022-09-27T06:20:29;97049.38;;;8.36;100.00
35226;BME280;21813;49.686;21.766;2022-09-27T06:23:06;97037.69;;;8.60;100.00
35226;BME280;21813;49.686;21.766;2022-09-27T06:25:32;97036.22;;;9.02;100.00
35226;BME280;21813;49.686;21.766;2022-09-27T06:27:59;97029.31;;;9.56;100.00
35226;BME280;21813;49.686;21.766;2022-09-27T06:30:24;97035.44;;;10.26;100.00
35226;BME280;21813;49.686;21.766;2022-09-27T06:33:01;97037.00;;;11.28;100.00
35226;BME280;21813;49.686;21.766;2022-09-27T06:35:30;97012.13;;;12.31;100.00
35226;BME280;21813;49.686;21.766;2022-09-27T06:37:56;97016.94;;;13.44;100.00
35226;BME280;21813;49.686;21.766;2022-09-27T06:40:22;97027.75;;;14.47;100.00
35226;BME280;21813;49.686;21.766;2022-09-27T06:42:52;97007.97;;;15.24;96.33
35226;BME280;21813;49.686;21.766;2022-09-27T06:45:18;97012.66;;;16.07;90.36
35226;BME280;21813;49.686;21.766;2022-09-27T06:47:44;97011.28;;;16.67;88.32
35226;BME280;21813;49.686;21.766;2022-09-27T06:50:14;97017.50;;;17.54;85.15
35226;BME280;21813;49.686;21.766;2022-09-27T06:52:48;97000.97;;;18.33;80.82
35226;BME280;21813;49.686;21.766;2022-09-27T06:55:17;97003.31;;;18.93;77.42
35226;BME280;21813;49.686;21.766;2022-09-27T06:57:46;97025.31;;;19.76;74.79
35226;BME280;21813;49.686;21.766;2022-09-27T07:00:32;97012.72;;;20.03;72.31
35226;BME280;21813;49.686;21.766;2022-09-27T07:02:58;97007.97;;;19.49;73.64
35226;BME280;21813;49.686;21.766;2022-09-27T07:05:27;97018.22;;;18.48;75.83
35226;BME280;21813;49.686;21.766;2022-09-27T07:07:58;97021.25;;;17.80;78.36
35226;BME280;21813;49.686;21.766;2022-09-27T07:10:28;97004.22;;;18.28;78.36
35226;BME280;21813;49.686;21.766;2022-09-27T07:12:55;97005.97;;;19.82;73.11
35226;BME280;21813;49.686;21.766;2022-09-27T07:15:21;97006.19;;;20.55;69.25
35226;BME280;21813;49.686;21.766;2022-09-27T07:17:59;97011.78;;;19.91;70.72
35226;BME280;21813;49.686;21.766;2022-09-27T07:23:04;96997.34;;;18.21;77.91
35226;BME280;21813;49.686;21.766;2022-09-27T07:25:31;97019.63;;;18.38;78.34
35226;BME280;21813;49.686;21.766;2022-09-27T07:28:04;97019.94;;;19.01;76.33
35226;BME280;21813;49.686;21.766;2022-09-27T07:30:30;97023.84;;;19.80;73.74
35226;BME280;21813;49.686;21.766;2022-09-27T07:32:59;97020.69;;;19.65;72.98
35226;BME280;21813;49.686;21.766;2022-09-27T07:35:51;97013.94;;;18.41;76.17
35226;BME280;21813;49.686;21.766;2022-09-27T07:38:32;97008.97;;;17.46;81.27
35226;BME280;21813;49.686;21.766;2022-09-27T07:41:11;97023.88;;;17.86;81.08
35226;BME280;21813;49.686;21.766;2022-09-27T07:43:39;97019.97;;;17.62;81.47
35226;BME280;21813;49.686;21.766;2022-09-27T07:46:10;97033.38;;;17.13;83.80
35226;BME280;21813;49.686;21.766;2022-09-27T07:48:36;97012.56;;;16.50;86.60
35226;BME280;21813;49.686;21.766;2022-09-27T07:51:02;97017.22;;;15.99;89.45
35226;BME280;21813;49.686;21.766;2022-09-27T07:53:29;97012.41;;;15.60;91.83
35226;BME280;21813;49.686;21.766;2022-09-27T07:55:55;96997.22;;;15.40;93.52
35226;BME280;21813;49.686;21.766;2022-09-27T07:58:21;97005.34;;;15.24;94.39
35226;BME280;21813;49.686;21.766;2022-09-27T08:00:47;97000.66;;;15.05;96.07
35226;BME280;21813;49.686;21.766;2022-09-27T08:03:15;96998.88;;;14.91;96.67
35226;BME280;21813;49.686;21.766;2022-09-27T08:06:04;97000.69;;;14.76;97.96
35226;BME280;21813;49.686;21.766;2022-09-27T08:08:31;97016.25;;;14.77;99.40
35226;BME280;21813;49.686;21.766;2022-09-27T08:10:56;97009.22;;;14.63;99.21
35226;BME280;21813;49.686;21.766;2022-09-27T08:13:23;97012.09;;;14.53;100.00
35226;BME280;21813;49.686;21.766;2022-09-27T08:15:51;97009.66;;;14.37;100.00
35226;BME280;21813;49.686;21.766;2022-09-27T08:18:19;97011.03;;;14.25;100.00
35226;BME280;21813;49.686;21.766;2022-09-27T08:21:02;97004.69;;;14.05;100.00
35226;BME280;21813;49.686;21.766;2022-09-27T08:23:51;97017.78;;;14.05;100.00
35226;BME280;21813;49.686;21.766;2022-09-27T08:26:59;97013.13;;;13.92;100.00
35226;BME280;21813;49.686;21.766;2022-09-27T08:29:44;96994.06;;;13.84;100.00
35226;BME280;21813;49.686;21.766;2022-09-27T08:32:31;96997.31;;;13.86;100.00
35226;BME280;21813;49.686;21.766;2022-09-27T08:38:26;96981.31;;;13.81;100.00
35226;BME280;21813;49.686;21.766;2022-09-27T08:41:01;96998.75;;;13.88;100.00
35226;BME280;21813;49.686;21.766;2022-09-27T08:43:56;96988.28;;;13.88;100.00
35226;BME280;21813;49.686;21.766;2022-09-27T08:49:50;97011.53;;;13.91;100.00
35226;BME280;21813;49.686;21.766;2022-09-27T08:52:55;96984.91;;;13.80;100.00
35226;BME280;21813;49.686;21.766;2022-09-27T08:55:32;97003.84;;;13.90;100.00
35226;BME280;21813;49.686;21.766;2022-09-27T08:58:19;96975.34;;;13.72;100.00
35226;BME280;21813;49.686;21.766;2022-09-27T09:00:53;96984.63;;;13.75;100.00
35226;BME280;21813;49.686;21.766;2022-09-27T09:03:24;97005.72;;;13.81;100.00
35226;BME280;21813;49.686;21.766;2022-09-27T09:14:28;97015.00;;;13.84;100.00
35226;BME280;21813;49.686;21.766;2022-09-27T09:17:02;97011.03;;;13.88;100.00
35226;BME280;21813;49.686;21.766;2022-09-27T09:23:07;96999.44;;;14.05;100.00
35226;BME280;21813;49.686;21.766;2022-09-27T09:31:00;96998.72;;;14.63;98.23
35226;BME280;21813;49.686;21.766;2022-09-27T09:33:47;96998.88;;;14.62;97.22
35226;BME280;21813;49.686;21.766;2022-09-27T09:36:46;96997.56;;;14.66;97.28
35226;BME280;21813;49.686;21.766;2022-09-27T09:39:37;96998.34;;;14.66;95.99
35226;BME280;21813;49.686;21.766;2022-09-27T09:44:47;96986.59;;;14.77;96.70
35226;BME280;21813;49.686;21.766;2022-09-27T09:47:34;96981.59;;;14.96;97.19
35226;BME280;21813;49.686;21.766;2022-09-27T09:50:23;96984.25;;;15.18;95.70
35226;BME280;21813;49.686;21.766;2022-09-27T09:53:08;96977.16;;;15.33;94.50
35226;BME280;21813;49.686;21.766;2022-09-27T09:55:38;96978.84;;;15.40;93.32
35226;BME280;21813;49.686;21.766;2022-09-27T09:58:27;96955.09;;;15.27;92.86
35226;BME280;21813;49.686;21.766;2022-09-27T10:00:59;96956.47;;;15.23;92.96
35226;BME280;21813;49.686;21.766;2022-09-27T10:03:27;96954.13;;;15.14;92.81
35226;BME280;21813;49.686;21.766;2022-09-27T10:05:54;96978.56;;;15.14;92.74
35226;BME280;21813;49.686;21.766;2022-09-27T10:08:21;96973.78;;;15.03;93.13
35226;BME280;21813;49.686;21.766;2022-09-27T10:10:49;96962.16;;;14.91;94.01
35226;BME280;21813;49.686;21.766;2022-09-27T10:13:17;96966.22;;;14.93;94.17
35226;BME280;21813;49.686;21.766;2022-09-27T10:15:52;96954.66;;;14.88;94.93
35226;BME280;21813;49.686;21.766;2022-09-27T10:18:23;96960.91;;;14.87;94.62
35226;BME280;21813;49.686;21.766;2022-09-27T10:21:00;96948.34;;;14.82;94.19
35226;BME280;21813;49.686;21.766;2022-09-27T10:24:10;96949.72;;;14.99;94.01
35226;BME280;21813;49.686;21.766;2022-09-27T10:26:43;96953.00;;;15.01;93.99
35226;BME280;21813;49.686;21.766;2022-09-27T10:31:44;96922.53;;;14.86;93.69
35226;BME280;21813;49.686;21.766;2022-09-27T10:37:15;96942.34;;;15.24;93.87
35226;BME280;21813;49.686;21.766;2022-09-27T10:39:45;96920.03;;;15.35;93.77
35226;BME280;21813;49.686;21.766;2022-09-27T10:42:42;96925.06;;;15.51;93.34
35226;BME280;21813;49.686;21.766;2022-09-27T10:45:27;96915.31;;;15.66;93.29
35226;BME280;21813;49.686;21.766;2022-09-27T10:47:56;96898.75;;;15.72;92.86
35226;BME280;21813;49.686;21.766;2022-09-27T10:50:28;96934.19;;;16.04;92.13
35226;BME280;21813;49.686;21.766;2022-09-27T10:53:02;96935.66;;;16.13;91.20
35226;BME280;21813;49.686;21.766;2022-09-27T10:55:37;96913.53;;;16.01;90.57
35226;BME280;21813;49.686;21.766;2022-09-27T10:58:25;96915.78;;;16.04;90.95
35226;BME280;21813;49.686;21.766;2022-09-27T11:01:01;96925.38;;;16.18;90.75
35226;BME280;21813;49.686;21.766;2022-09-27T11:03:32;96931.88;;;16.22;89.42
35226;BME280;21813;49.686;21.766;2022-09-27T11:09:13;96924.75;;;16.16;88.83
35226;BME280;21813;49.686;21.766;2022-09-27T11:11:44;96901.38;;;16.00;88.95
35226;BME280;21813;49.686;21.766;2022-09-27T11:14:22;96896.53;;;15.97;89.43
35226;BME280;21813;49.686;21.766;2022-09-27T11:17:11;96921.50;;;16.14;89.11
35226;BME280;21813;49.686;21.766;2022-09-27T11:20:05;96909.91;;;16.02;88.58
35226;BME280;21813;49.686;21.766;2022-09-27T11:22:57;96924.94;;;16.15;88.53
35226;BME280;21813;49.686;21.766;2022-09-27T11:31:23;96911.84;;;16.21;87.20
35226;BME280;21813;49.686;21.766;2022-09-27T11:40:23;96889.06;;;15.73;87.28
35226;BME280;21813;49.686;21.766;2022-09-27T11:46:42;96906.56;;;15.87;87.65
35226;BME280;21813;49.686;21.766;2022-09-27T11:48:56;96907.00;;;15.90;86.73
35226;BME280;21813;49.686;21.766;2022-09-27T11:57:14;96882.66;;;15.82;86.66
35226;BME280;21813;49.686;21.766;2022-09-27T12:00:21;96877.88;;;15.92;86.61
35226;BME280;21813;49.686;21.766;2022-09-27T12:03:25;96891.66;;;15.94;86.40
35226;BME280;21813;49.686;21.766;2022-09-27T12:06:24;96869.53;;;15.82;85.49
35226;BME280;21813;49.686;21.766;2022-09-27T12:09:11;96903.16;;;15.93;85.21
35226;BME280;21813;49.686;21.766;2022-09-27T12:12:10;96876.81;;;15.80;86.20
35226;BME280;21813;49.686;21.766;2022-09-27T12:14:42;96874.19;;;15.80;85.81
35226;BME280;21813;49.686;21.766;2022-09-27T12:17:15;96883.06;;;15.79;86.35
35226;BME280;21813;49.686;21.766;2022-09-27T12:19:46;96866.00;;;15.68;86.78
35226;BME280;21813;49.686;21.766;2022-09-27T12:22:29;96881.44;;;15.78;87.75
35226;BME280;21813;49.686;21.766;2022-09-27T12:24:57;96871.31;;;15.75;87.32
35226;BME280;21813;49.686;21.766;2022-09-27T12:27:41;96887.09;;;15.81;86.98
35226;BME280;21813;49.686;21.766;2022-09-27T12:30:13;96857.09;;;15.63;86.11
35226;BME280;21813;49.686;21.766;2022-09-27T12:36:14;96860.72;;;15.62;87.02
35226;BME280;21813;49.686;21.766;2022-09-27T12:41:59;96848.19;;;15.42;87.47
35226;BME280;21813;49.686;21.766;2022-09-27T12:44:36;96859.25;;;15.59;88.62
35226;BME280;21813;49.686;21.766;2022-09-27T12:47:06;96854.69;;;15.68;88.86
35226;BME280;21813;49.686;21.766;2022-09-27T12:52:19;96834.81;;;15.59;87.80
35226;BME280;21813;49.686;21.766;2022-09-27T12:58:09;96872.53;;;15.79;88.63
35226;BME280;21813;49.686;21.766;2022-09-27T13:01:13;96865.31;;;15.81;87.20
35226;BME280;21813;49.686;21.766;2022-09-27T13:07:23;96854.78;;;15.81;86.56
35226;BME280;21813;49.686;21.766;2022-09-27T13:12:27;96833.81;;;15.60;87.16
35226;BME280;21813;49.686;21.766;2022-09-27T13:15:16;96848.81;;;15.66;87.16
35226;BME280;21813;49.686;21.766;2022-09-27T13:17:58;96852.59;;;15.57;87.33
35226;BME280;21813;49.686;21.766;2022-09-27T13:31:05;96839.44;;;15.35;89.25
35226;BME280;21813;49.686;21.766;2022-09-27T13:44:15;96827.09;;;15.51;89.22
35226;BME280;21813;49.686;21.766;2022-09-27T13:49:42;96801.94;;;15.41;88.57
35226;BME280;21813;49.686;21.766;2022-09-27T13:54:55;96814.19;;;15.56;88.07
35226;BME280;21813;49.686;21.766;2022-09-27T14:00:24;96799.56;;;15.46;88.26
35226;BME280;21813;49.686;21.766;2022-09-27T14:03:05;96804.31;;;15.58;88.36
35226;BME280;21813;49.686;21.766;2022-09-27T14:06:00;96806.56;;;15.61;88.20
35226;BME280;21813;49.686;21.766;2022-09-27T14:08:56;96808.19;;;15.62;87.85
35226;BME280;21813;49.686;21.766;2022-09-27T14:11:32;96796.06;;;15.61;88.22
35226;BME280;21813;49.686;21.766;2022-09-27T14:14:03;96802.31;;;15.60;87.30
35226;BME280;21813;49.686;21.766;2022-09-27T14:16:35;96798.84;;;15.53;87.06
35226;BME280;21813;49.686;21.766;2022-09-27T14:19:14;96786.25;;;15.48;86.86
35226;BME280;21813;49.686;21.766;2022-09-27T14:21:43;96785.00;;;15.44;87.44
35226;BME280;21813;49.686;21.766;2022-09-27T14:24:41;96791.00;;;15.38;87.98
35226;BME280;21813;49.686;21.766;2022-09-27T14:29:55;96792.59;;;15.32;88.53
35226;BME280;21813;49.686;21.766;2022-09-27T14:32:25;96798.66;;;15.33;88.75
35226;BME280;21813;49.686;21.766;2022-09-27T14:35:14;96799.66;;;15.32;88.83
35226;BME280;21813;49.686;21.766;2022-09-27T14:38:01;96803.47;;;15.29;89.27
35226;BME280;21813;49.686;21.766;2022-09-27T14:40:29;96799.59;;;15.25;89.02
35226;BME280;21813;49.686;21.766;2022-09-27T14:43:00;96786.84;;;15.22;89.04
35226;BME280;21813;49.686;21.766;2022-09-27T14:48:34;96790.44;;;15.15;89.49
35226;BME280;21813;49.686;21.766;2022-09-27T14:56:51;96780.88;;;14.86;89.52
35226;BME280;21813;49.686;21.766;2022-09-27T14:59:28;96789.81;;;14.91;89.63
35226;BME280;21813;49.686;21.766;2022-09-27T15:02:03;96802.94;;;14.91;89.61
35226;BME280;21813;49.686;21.766;2022-09-27T15:04:48;96790.94;;;14.82;89.60
35226;BME280;21813;49.686;21.766;2022-09-27T15:07:18;96802.84;;;14.85;89.51
35226;BME280;21813;49.686;21.766;2022-09-27T15:09:48;96782.13;;;14.69;89.65
35226;BME280;21813;49.686;21.766;2022-09-27T15:12:23;96756.59;;;14.56;89.80
35226;BME280;21813;49.686;21.766;2022-09-27T15:14:53;96794.88;;;14.72;89.27
35226;BME280;21813;49.686;21.766;2022-09-27T15:17:21;96788.00;;;14.71;89.41
35226;BME280;21813;49.686;21.766;2022-09-27T15:22:32;96788.56;;;14.66;89.39
35226;BME280;21813;49.686;21.766;2022-09-27T15:25:10;96783.88;;;14.62;89.61
35226;BME280;21813;49.686;21.766;2022-09-27T15:27:46;96791.13;;;14.59;90.10
35226;BME280;21813;49.686;21.766;2022-09-27T15:30:17;96776.50;;;14.50;90.11
35226;BME280;21813;49.686;21.766;2022-09-27T15:32:52;96781.75;;;14.50;90.26
35226;BME280;21813;49.686;21.766;2022-09-27T15:35:27;96765.13;;;14.43;90.41
35226;BME280;21813;49.686;21.766;2022-09-27T15:38:12;96773.63;;;14.45;90.82
35226;BME280;21813;49.686;21.766;2022-09-27T15:43:26;96773.06;;;14.35;90.98
35226;BME280;21813;49.686;21.766;2022-09-27T15:45:55;96758.84;;;14.23;91.06
35226;BME280;21813;49.686;21.766;2022-09-27T15:48:28;96752.34;;;14.19;91.60
35226;BME280;21813;49.686;21.766;2022-09-27T15:50:54;96759.94;;;14.14;92.24
35226;BME280;21813;49.686;21.766;2022-09-27T15:56:06;96762.31;;;14.09;92.85
35226;BME280;21813;49.686;21.766;2022-09-27T15:58:34;96746.44;;;13.96;93.40
35226;BME280;21813;49.686;21.766;2022-09-27T16:01:05;96754.91;;;13.98;93.09
35226;BME280;21813;49.686;21.766;2022-09-27T16:03:32;96775.31;;;14.02;93.28
35226;BME280;21813;49.686;21.766;2022-09-27T16:06:01;96762.97;;;13.96;93.58
35226;BME280;21813;49.686;21.766;2022-09-27T16:08:28;96753.56;;;13.87;93.87
35226;BME280;21813;49.686;21.766;2022-09-27T16:10:56;96754.75;;;13.85;94.38
35226;BME280;21813;49.686;21.766;2022-09-27T16:13:23;96744.38;;;13.77;94.36
35226;BME280;21813;49.686;21.766;2022-09-27T16:16:07;96753.84;;;13.78;94.98